Terminal Aerodrome Forecast
Issued by NWS Medford, OR

Home | Current Version | Previous Version | Text Only | Print | Product List | Glossary On
Versions: 1 2 3 4 5 6 7 8 9 10 11 12
000
FTUS46 KMFR 301700 RRA
TAFMFR
TAF
KMFR 301749Z 3018/3118 VRB03KT P6SM SKC
     FM302100 31012KT P6SM VCTS BKN100CB BKN250
     FM310400 30006KT P6SM SCT100 BKN300=

USA.gov is the U.S. government's official web portal to all federal, state and local government web resources and services.